Time;durP1;ratioP1;P1;durP2;ratioP2;P2;SDS_P1;SDS_P2;PMS_P1;PMS_P2;Temp;Humidity;BMP_temperature;BMP_pressure;BME280_temperature;BME280_humidity;BME280_pressure;Samples;Min_cycle;Max_cycle;Signal;HPM_P1;HPM_P2
2021/06/25 00:00:42;;;;;;;6.47;4.95;;;15.70;99.90;;;;;;4975744;28;20230;-84
2021/06/25 00:03:12;;;;;;;8.60;6.30;;;15.80;99.90;;;;;;4969412;28;20229;-84
2021/06/25 00:05:39;;;;;;;8.68;5.65;;;15.70;99.90;;;;;;4970873;28;20230;-84
2021/06/25 00:08:07;;;;;;;8.45;6.88;;;15.70;99.90;;;;;;4970893;28;20215;-83
2021/06/25 00:10:37;;;;;;;7.10;6.40;;;15.50;99.90;;;;;;4972065;28;20210;-84
2021/06/25 00:13:04;;;;;;;8.10;5.90;;;15.60;99.90;;;;;;4976210;28;20199;-83
2021/06/25 00:15:32;;;;;;;7.95;6.95;;;15.60;99.90;;;;;;4970729;28;20222;-83
2021/06/25 00:18:01;;;;;;;8.10;7.28;;;15.60;99.90;;;;;;4971022;28;20282;-84
2021/06/25 00:20:35;;;;;;;11.93;7.40;;;15.60;99.90;;;;;;4980869;28;20238;-84
2021/06/25 00:23:07;;;;;;;6.75;6.05;;;15.60;99.90;;;;;;4966220;28;20238;-84
2021/06/25 00:25:34;;;;;;;7.57;6.47;;;15.50;99.90;;;;;;4975931;28;20225;-84
2021/06/25 00:28:05;;;;;;;7.07;6.38;;;15.50;99.90;;;;;;4974489;28;20256;-84
2021/06/25 00:30:35;;;;;;;8.80;6.47;;;15.50;99.90;;;;;;4968643;28;20199;-84
2021/06/25 00:33:03;;;;;;;8.10;7.35;;;15.30;99.90;;;;;;4963786;28;20229;-84
2021/06/25 00:35:50;;;;;;;7.78;7.10;;;15.50;99.90;;;;;;4970008;28;20248;-84
2021/06/25 00:38:17;;;;;;;9.80;8.18;;;15.50;99.90;;;;;;4953219;28;20220;-84
2021/06/25 00:40:45;;;;;;;7.85;6.25;;;15.40;99.90;;;;;;4979682;28;20199;-84
2021/06/25 00:43:14;;;;;;;8.48;6.72;;;15.40;99.90;;;;;;4982850;28;20228;-84
2021/06/25 00:45:42;;;;;;;8.02;7.22;;;15.40;99.90;;;;;;4982730;28;20238;-84
2021/06/25 00:48:10;;;;;;;8.70;7.75;;;15.40;99.90;;;;;;4983113;28;20257;-84
2021/06/25 00:50:38;;;;;;;8.65;7.07;;;15.40;99.90;;;;;;4983031;28;20217;-84
2021/06/25 00:53:07;;;;;;;11.98;8.95;;;15.40;99.90;;;;;;4981823;28;20199;-84
2021/06/25 00:55:43;;;;;;;7.50;6.63;;;15.40;99.90;;;;;;4980306;28;20293;-84
2021/06/25 00:58:14;;;;;;;12.95;7.95;;;15.30;99.90;;;;;;4976888;28;20232;-84
2021/06/25 01:00:48;;;;;;;8.13;7.20;;;15.30;99.90;;;;;;4973489;28;20202;-84
2021/06/25 01:03:16;;;;;;;8.75;7.13;;;15.30;99.90;;;;;;4974822;28;20226;-84
2021/06/25 01:05:47;;;;;;;11.50;7.30;;;15.30;99.90;;;;;;4980272;28;20210;-84
2021/06/25 01:08:18;;;;;;;13.50;8.93;;;15.30;99.90;;;;;;4969847;28;20271;-84
2021/06/25 01:10:46;;;;;;;10.52;7.93;;;15.30;99.90;;;;;;4971082;28;20202;-85
2021/06/25 01:13:16;;;;;;;14.70;8.43;;;15.20;99.90;;;;;;4973547;28;20203;-83
2021/06/25 01:15:46;;;;;;;11.82;8.95;;;15.20;99.90;;;;;;4961328;28;20258;-84
2021/06/25 01:18:14;;;;;;;11.38;10.27;;;15.10;99.90;;;;;;4956429;28;20234;-84
2021/06/25 01:20:58;;;;;;;10.68;8.90;;;15.10;99.90;;;;;;4957083;29;20225;-85
2021/06/25 01:23:37;;;;;;;11.00;9.60;;;15.10;99.90;;;;;;4950308;28;20252;-84
2021/06/25 01:26:07;;;;;;;14.32;9.57;;;15.00;99.90;;;;;;4962481;28;20235;-84
2021/06/25 01:28:36;;;;;;;11.25;8.30;;;15.00;99.90;;;;;;4967087;29;20214;-84
2021/06/25 01:31:11;;;;;;;9.43;8.40;;;15.00;99.90;;;;;;4962137;28;20274;-84
2021/06/25 01:33:41;;;;;;;11.90;9.20;;;15.10;99.90;;;;;;4961015;28;20195;-84
2021/06/25 01:36:19;;;;;;;11.00;8.50;;;14.90;99.90;;;;;;4956443;28;20219;-84
2021/06/25 01:38:53;;;;;;;10.07;8.95;;;15.00;99.90;;;;;;4956577;28;20207;-84
2021/06/25 01:41:24;;;;;;;12.93;9.90;;;15.00;99.90;;;;;;4960964;28;20516;-84
2021/06/25 01:43:54;;;;;;;10.82;9.50;;;15.20;99.90;;;;;;4962771;28;20327;-84
2021/06/25 01:46:23;;;;;;;12.32;10.23;;;15.30;99.90;;;;;;4968322;28;20272;-85
2021/06/25 01:48:51;;;;;;;10.93;8.70;;;15.40;99.90;;;;;;4961086;28;20258;-84
2021/06/25 01:51:24;;;;;;;10.70;9.10;;;15.50;99.90;;;;;;4964166;29;20239;-83
2021/06/25 01:54:02;;;;;;;12.77;10.98;;;15.60;99.90;;;;;;4950791;28;20219;-82
2021/06/25 01:56:43;;;;;;;15.05;10.45;;;15.40;99.90;;;;;;4956427;28;20223;-84
2021/06/25 01:59:13;;;;;;;14.52;9.73;;;15.30;99.90;;;;;;4963571;28;20207;-84
2021/06/25 02:01:43;;;;;;;11.68;10.48;;;15.20;99.90;;;;;;4966306;28;20222;-84
2021/06/25 02:04:11;;;;;;;14.57;11.80;;;15.10;99.90;;;;;;4969315;29;20247;-84
2021/06/25 02:06:45;;;;;;;14.50;10.65;;;15.10;99.90;;;;;;4962375;29;20281;-84
2021/06/25 02:09:28;;;;;;;17.92;12.32;;;15.00;99.90;;;;;;4975491;28;20210;-84
2021/06/25 02:12:07;;;;;;;17.38;11.40;;;14.90;99.90;;;;;;4965607;28;20215;-84
2021/06/25 02:14:34;;;;;;;16.95;11.50;;;14.80;99.90;;;;;;4970161;28;20217;-84
2021/06/25 02:17:02;;;;;;;10.63;9.50;;;14.80;99.90;;;;;;4962261;28;20218;-83
2021/06/25 02:19:36;;;;;;;11.20;9.70;;;14.80;99.90;;;;;;4961098;28;20214;-84
2021/06/25 02:22:12;;;;;;;11.80;10.60;;;14.90;99.90;;;;;;4969354;28;20207;-84
2021/06/25 02:24:57;;;;;;;10.50;9.23;;;14.90;99.90;;;;;;4964236;28;20226;-84
2021/06/25 02:27:31;;;;;;;11.10;8.82;;;14.90;99.90;;;;;;4966607;28;20235;-84
2021/06/25 02:29:59;;;;;;;10.80;9.05;;;14.90;99.90;;;;;;4965329;28;20206;-84
2021/06/25 02:32:31;;;;;;;9.85;8.85;;;14.80;99.90;;;;;;4968134;28;20234;-84
2021/06/25 02:34:59;;;;;;;11.88;9.15;;;14.70;99.90;;;;;;4969950;28;20233;-84
2021/06/25 02:37:34;;;;;;;12.20;10.85;;;14.80;99.90;;;;;;4979520;28;20235;-83
2021/06/25 02:40:10;;;;;;;14.13;11.10;;;14.70;99.90;;;;;;4979341;28;20206;-84
2021/06/25 02:42:38;;;;;;;12.15;10.80;;;14.70;99.90;;;;;;4974753;28;20253;-84
2021/06/25 02:45:21;;;;;;;14.10;11.00;;;14.60;99.90;;;;;;4974155;28;20287;-83
2021/06/25 02:47:50;;;;;;;13.57;10.70;;;14.70;99.90;;;;;;4961940;28;20233;-85
2021/06/25 02:50:26;;;;;;;16.33;9.18;;;14.60;99.90;;;;;;4966459;28;20222;-83
2021/06/25 02:52:57;;;;;;;12.63;10.35;;;14.50;99.90;;;;;;4957987;28;20285;-83
2021/06/25 02:55:35;;;;;;;13.27;9.75;;;14.60;99.90;;;;;;4966305;28;20240;-84
2021/06/25 02:58:03;;;;;;;14.23;11.20;;;14.60;99.90;;;;;;4958202;28;20227;-84
2021/06/25 03:00:35;;;;;;;13.38;10.80;;;14.70;99.90;;;;;;4968780;28;20234;-84
2021/06/25 03:03:21;;;;;;;11.02;9.52;;;14.70;99.90;;;;;;4971060;28;20199;-84
2021/06/25 03:05:48;;;;;;;12.15;10.85;;;14.80;99.90;;;;;;4979255;28;20282;-84
2021/06/25 03:08:24;;;;;;;12.07;8.82;;;14.80;99.90;;;;;;4982952;28;20203;-84
2021/06/25 03:10:53;;;;;;;13.45;10.68;;;14.90;99.90;;;;;;4965880;28;20349;-85
2021/06/25 03:13:30;;;;;;;14.35;9.82;;;15.00;99.90;;;;;;4971280;28;20210;-84
2021/06/25 03:15:57;;;;;;;10.32;9.25;;;15.00;99.90;;;;;;4971806;28;20234;-84
2021/06/25 03:18:29;;;;;;;13.25;9.13;;;15.00;99.90;;;;;;4964097;28;20644;-84
2021/06/25 03:21:07;;;;;;;15.15;9.85;;;14.80;99.90;;;;;;4966522;28;20564;-84
2021/06/25 03:23:35;;;;;;;13.52;10.00;;;14.90;99.90;;;;;;4968766;28;20277;-84
2021/06/25 03:26:06;;;;;;;9.60;8.63;;;14.90;99.90;;;;;;4966274;28;20258;-84
2021/06/25 03:28:41;;;;;;;10.05;9.05;;;15.00;99.90;;;;;;4967471;28;20199;-84
2021/06/25 03:31:17;;;;;;;14.50;9.88;;;14.90;99.90;;;;;;4978619;28;20198;-84
2021/06/25 03:33:45;;;;;;;13.65;10.65;;;15.00;99.90;;;;;;4966524;28;20209;-83
2021/06/25 03:36:23;;;;;;;11.25;9.63;;;15.00;99.90;;;;;;4975308;28;20242;-84
2021/06/25 03:38:51;;;;;;;14.18;10.18;;;14.90;99.90;;;;;;4973009;28;20289;-84
2021/06/25 03:41:20;;;;;;;11.98;10.27;;;14.90;99.90;;;;;;4968417;28;20257;-84
2021/06/25 03:43:47;;;;;;;10.07;8.95;;;14.90;99.90;;;;;;4972451;28;20215;-84
2021/06/25 03:46:14;;;;;;;12.73;9.60;;;15.00;99.90;;;;;;4974049;28;20223;-84
2021/06/25 03:48:42;;;;;;;12.43;11.10;;;15.00;99.90;;;;;;4976087;28;20207;-83
2021/06/25 03:51:09;;;;;;;12.32;9.60;;;15.00;99.90;;;;;;4968835;28;20207;-83
2021/06/25 03:53:36;;;;;;;11.18;9.73;;;15.00;99.90;;;;;;4968221;28;20217;-83
2021/06/25 03:56:11;;;;;;;13.80;10.02;;;15.00;99.90;;;;;;4966105;28;20219;-84
2021/06/25 03:58:40;;;;;;;11.15;10.05;;;15.00;99.90;;;;;;4969595;28;20198;-83
2021/06/25 04:01:08;;;;;;;10.98;9.77;;;15.00;99.90;;;;;;4965301;28;20202;-83
2021/06/25 04:03:35;;;;;;;14.25;11.50;;;14.90;99.90;;;;;;4961983;28;20239;-84
2021/06/25 04:06:03;;;;;;;11.48;9.73;;;15.00;99.90;;;;;;4960606;28;20261;-83
2021/06/25 04:08:31;;;;;;;13.10;10.02;;;15.00;99.90;;;;;;4966834;28;20644;-83
2021/06/25 04:10:59;;;;;;;17.05;11.25;;;15.20;99.90;;;;;;4973950;28;20207;-83
2021/06/25 04:13:28;;;;;;;12.10;9.88;;;15.40;99.90;;;;;;4970071;28;20233;-83
2021/06/25 04:15:58;;;;;;;17.15;12.50;;;15.70;99.90;;;;;;4959645;28;20244;-83
2021/06/25 04:18:26;;;;;;;14.48;11.10;;;15.70;99.90;;;;;;4961697;28;20651;-84
2021/06/25 04:20:55;;;;;;;13.95;11.73;;;15.80;99.90;;;;;;4966318;28;20211;-83
2021/06/25 04:23:23;;;;;;;16.30;11.45;;;15.90;99.90;;;;;;4965189;28;20210;-83
2021/06/25 04:25:52;;;;;;;15.07;12.70;;;16.00;99.90;;;;;;4964263;28;20226;-83
2021/06/25 04:28:20;;;;;;;15.23;10.70;;;16.00;99.90;;;;;;4964757;28;20234;-84
2021/06/25 04:30:48;;;;;;;11.40;9.30;;;16.10;99.90;;;;;;4961354;28;20203;-85
2021/06/25 04:33:42;;;;;;;14.25;10.93;;;16.20;99.90;;;;;;4958074;28;20219;-84
2021/06/25 04:36:25;;;;;;;10.93;9.80;;;16.50;99.90;;;;;;4958816;28;20247;-84
2021/06/25 04:42:42;;;;;;;10.02;8.80;;;17.50;99.90;;;;;;4929962;28;20218;-84
2021/06/25 04:45:10;;;;;;;13.88;8.77;;;18.40;99.90;;;;;;4970514;28;20263;-84
2021/06/25 04:50:41;;;;;;;9.60;8.60;;;19.90;99.90;;;;;;4958786;28;20445;-87
2021/06/25 04:53:27;;;;;;;9.07;8.17;;;20.30;99.90;;;;;;4967091;28;20474;-87
2021/06/25 04:56:34;;;;;;;10.57;7.50;;;20.80;99.90;;;;;;4965158;28;20474;-87
2021/06/25 04:59:18;;;;;;;12.80;9.83;;;20.90;99.90;;;;;;4963770;28;20462;-86
2021/06/25 05:01:52;;;;;;;10.30;8.43;;;20.60;99.90;;;;;;4964194;28;20526;-88
2021/06/25 05:04:20;;;;;;;12.20;9.07;;;19.90;99.90;;;;;;4958112;28;20524;-86
2021/06/25 05:06:49;;;;;;;11.67;9.10;;;19.70;99.90;;;;;;4957331;28;20486;-84
2021/06/25 05:09:17;;;;;;;10.57;9.27;;;19.20;99.90;;;;;;4975784;28;20661;-85
2021/06/25 05:15:23;;;;;;;7.90;6.63;;;18.60;99.90;;;;;;4884955;23;20518;-70
2021/06/25 05:17:51;;;;;;;10.87;7.73;;;18.30;99.90;;;;;;5011304;28;20979;-70
2021/06/25 05:20:18;;;;;;;9.98;7.95;;;18.40;99.90;;;;;;5011361;28;20594;-70
2021/06/25 05:22:48;;;;;;;9.55;8.55;;;18.50;99.90;;;;;;5008484;28;20773;-71
2021/06/25 05:25:15;;;;;;;12.50;7.97;;;18.70;99.90;;;;;;5004149;28;20595;-71
2021/06/25 05:27:43;;;;;;;13.27;8.30;;;19.10;99.90;;;;;;5011348;28;20883;-69
2021/06/25 05:30:13;;;;;;;11.00;7.80;;;19.80;99.90;;;;;;5002825;28;20797;-69
2021/06/25 05:32:40;;;;;;;11.63;7.43;;;20.40;99.90;;;;;;5010360;28;20877;-69
2021/06/25 05:35:08;;;;;;;10.53;8.80;;;21.10;99.90;;;;;;5010744;28;20454;-69
2021/06/25 05:37:35;;;;;;;17.10;8.73;;;21.40;99.90;;;;;;5015179;28;20466;-68
2021/06/25 05:40:04;;;;;;;12.43;7.47;;;22.20;99.10;;;;;;5011800;28;20539;-69
2021/06/25 05:42:32;;;;;;;11.63;7.47;;;22.60;97.90;;;;;;5011082;28;20482;-69
2021/06/25 05:44:59;;;;;;;7.73;6.57;;;23.30;96.40;;;;;;5007780;28;20608;-70
2021/06/25 05:47:26;;;;;;;12.63;7.10;;;23.80;94.40;;;;;;5011292;28;20447;-69
2021/06/25 05:49:53;;;;;;;10.43;7.57;;;24.20;92.90;;;;;;5009680;28;20755;-71
2021/06/25 05:52:20;;;;;;;8.90;7.83;;;24.40;92.40;;;;;;5013595;28;20471;-70
2021/06/25 05:54:48;;;;;;;11.03;8.00;;;24.50;91.80;;;;;;5014848;28;20941;-69
2021/06/25 05:57:16;;;;;;;15.87;10.17;;;24.70;92.10;;;;;;5012040;28;20452;-70
2021/06/25 05:59:43;;;;;;;12.43;8.43;;;25.00;91.50;;;;;;5009944;28;20447;-69
2021/06/25 06:02:11;;;;;;;9.27;7.87;;;25.30;91.00;;;;;;5011662;28;20471;-71
2021/06/25 06:04:38;;;;;;;9.00;7.10;;;25.60;90.00;;;;;;5013392;28;21013;-71
2021/06/25 06:07:06;;;;;;;10.97;7.83;;;25.70;89.50;;;;;;5010450;28;20448;-68
2021/06/25 06:09:33;;;;;;;7.63;6.70;;;26.00;88.40;;;;;;5001319;28;20509;-68
2021/06/25 06:12:01;;;;;;;7.70;7.00;;;26.50;87.90;;;;;;5012803;28;20469;-68
2021/06/25 06:14:29;;;;;;;8.97;6.90;;;26.30;86.90;;;;;;5013761;28;20530;-69
2021/06/25 06:16:57;;;;;;;8.17;7.03;;;26.30;86.50;;;;;;5014167;28;20470;-68
2021/06/25 06:19:24;;;;;;;9.17;7.90;;;26.50;85.60;;;;;;5008636;28;20482;-68
2021/06/25 06:33:16;;;;;;;8.97;7.20;;;21.80;94.20;;;;;;4971653;28;20604;-69
2021/06/25 06:35:44;;;;;;;12.47;7.70;;;21.60;95.50;;;;;;4990838;28;20449;-69
2021/06/25 06:38:12;;;;;;;12.90;8.77;;;21.50;97.00;;;;;;5013097;28;20541;-69
2021/06/25 06:40:40;;;;;;;7.83;7.03;;;21.20;97.20;;;;;;5013322;28;20450;-69
2021/06/25 06:43:07;;;;;;;16.20;9.50;;;21.30;97.40;;;;;;5013650;28;20821;-69
2021/06/25 06:45:36;;;;;;;10.83;8.50;;;20.70;98.20;;;;;;5012058;28;20483;-69
2021/06/25 06:48:03;;;;;;;11.10;10.00;;;19.90;99.90;;;;;;5012975;28;20464;-69
2021/06/25 06:50:30;;;;;;;9.50;8.50;;;19.70;99.90;;;;;;5007397;28;20442;-69
2021/06/25 06:52:58;;;;;;;9.70;7.30;;;19.70;99.90;;;;;;5007020;28;20470;-70
2021/06/25 06:55:26;;;;;;;9.20;8.30;;;19.80;99.90;;;;;;5007915;28;20509;-69
2021/06/25 06:57:53;;;;;;;13.50;9.00;;;20.10;99.90;;;;;;5008544;28;20864;-70
2021/06/25 07:00:22;;;;;;;9.40;8.43;;;20.50;99.90;;;;;;5002219;28;20444;-70
2021/06/25 07:02:51;;;;;;;8.73;7.97;;;21.20;99.30;;;;;;4995759;28;20490;-70
2021/06/25 07:05:18;;;;;;;11.10;8.00;;;21.50;97.20;;;;;;5011407;28;20845;-70
2021/06/25 07:07:45;;;;;;;9.20;6.97;;;22.00;97.00;;;;;;5004290;28;20448;-70
2021/06/25 07:10:13;;;;;;;9.70;7.53;;;23.20;94.80;;;;;;5011792;28;20444;-69
2021/06/25 07:12:42;;;;;;;8.47;6.80;;;24.80;92.20;;;;;;5011019;28;20831;-70
2021/06/25 07:15:09;;;;;;;8.03;7.17;;;25.50;89.10;;;;;;5010407;28;20459;-70
2021/06/25 07:17:37;;;;;;;9.00;8.10;;;26.00;87.50;;;;;;5012176;28;20451;-70
2021/06/25 07:20:07;;;;;;;6.97;6.10;;;26.70;86.00;;;;;;5009475;28;20452;-70
2021/06/25 07:22:35;;;;;;;14.80;7.10;;;26.80;83.80;;;;;;5010515;28;20567;-70
2021/06/25 07:25:02;;;;;;;7.53;6.20;;;27.00;83.00;;;;;;5002330;28;20481;-70
2021/06/25 07:27:29;;;;;;;7.53;6.83;;;27.30;82.90;;;;;;5011398;28;20448;-70
2021/06/25 07:29:57;;;;;;;6.83;5.23;;;27.50;82.20;;;;;;5006881;28;20449;-69
2021/06/25 07:32:25;;;;;;;6.83;5.80;;;27.70;80.00;;;;;;5002377;28;20530;-70
2021/06/25 07:34:52;;;;;;;9.17;5.93;;;28.50;77.40;;;;;;5004425;28;20927;-69
2021/06/25 07:37:20;;;;;;;5.47;4.97;;;28.40;76.80;;;;;;5012028;28;20443;-70
2021/06/25 07:39:48;;;;;;;7.70;6.80;;;28.00;78.10;;;;;;5013229;28;20910;-70
2021/06/25 07:42:15;;;;;;;8.80;7.90;;;27.20;78.20;;;;;;5011606;28;20781;-70
2021/06/25 07:44:42;;;;;;;8.60;7.70;;;25.90;81.80;;;;;;5009229;28;20847;-70
2021/06/25 07:47:10;;;;;;;11.00;9.60;;;25.60;84.40;;;;;;5010441;28;20460;-69
2021/06/25 07:49:37;;;;;;;8.73;7.83;;;24.50;87.70;;;;;;5008720;28;20902;-70
2021/06/25 07:52:04;;;;;;;8.97;8.07;;;24.10;90.00;;;;;;5002991;28;20483;-69
2021/06/25 07:54:33;;;;;;;11.10;8.13;;;23.80;90.40;;;;;;5002406;28;20515;-70
2021/06/25 07:57:00;;;;;;;9.37;7.97;;;23.20;91.80;;;;;;5009907;28;20942;-70
2021/06/25 07:59:30;;;;;;;8.03;6.37;;;22.90;92.00;;;;;;5006248;28;20967;-69
2021/06/25 08:01:59;;;;;;;7.73;6.93;;;22.80;92.60;;;;;;5006090;28;20935;-70
2021/06/25 08:04:28;;;;;;;11.50;8.20;;;22.60;92.80;;;;;;5005112;28;20454;-69
2021/06/25 08:06:55;;;;;;;11.17;9.97;;;22.20;93.70;;;;;;5012246;28;20458;-69
2021/06/25 08:09:22;;;;;;;10.80;9.70;;;21.60;94.50;;;;;;5011357;28;20762;-69
2021/06/25 08:11:51;;;;;;;12.30;9.27;;;21.40;95.80;;;;;;5011403;28;20471;-70
2021/06/25 08:14:18;;;;;;;12.43;7.80;;;21.20;96.90;;;;;;5011953;28;20992;-69
2021/06/25 08:16:45;;;;;;;10.43;9.40;;;21.00;97.70;;;;;;5009184;28;20461;-69
2021/06/25 08:19:14;;;;;;;9.03;8.13;;;21.00;98.00;;;;;;5006898;28;20470;-69
2021/06/25 08:21:41;;;;;;;9.53;8.10;;;21.30;98.80;;;;;;5011394;28;20498;-69
2021/06/25 08:24:09;;;;;;;9.77;7.83;;;22.80;96.60;;;;;;5007027;28;20440;-70
2021/06/25 08:26:36;;;;;;;8.57;7.77;;;24.80;93.30;;;;;;5000489;28;20485;-70
2021/06/25 08:29:05;;;;;;;9.13;8.00;;;26.10;90.20;;;;;;5009169;28;20448;-69
2021/06/25 08:31:32;;;;;;;12.33;10.37;;;27.10;86.50;;;;;;5010127;28;20491;-69
2021/06/25 08:34:00;;;;;;;10.70;9.70;;;27.70;83.20;;;;;;5004635;28;20816;-69
2021/06/25 08:36:28;;;;;;;8.90;8.00;;;28.40;79.40;;;;;;5005855;28;20498;-69
2021/06/25 08:38:55;;;;;;;10.03;9.03;;;28.30;80.60;;;;;;5004792;28;20950;-69
2021/06/25 08:41:22;;;;;;;10.83;9.80;;;28.20;78.60;;;;;;5004782;28;20467;-69
2021/06/25 08:43:49;;;;;;;12.17;10.93;;;27.70;79.50;;;;;;5009460;28;20893;-69
2021/06/25 08:46:19;;;;;;;9.53;8.63;;;27.10;81.10;;;;;;5008803;28;20495;-70
2021/06/25 08:48:48;;;;;;;10.40;9.40;;;27.30;82.90;;;;;;5006472;28;20449;-70
2021/06/25 08:51:16;;;;;;;11.70;10.47;;;28.00;80.00;;;;;;5008851;28;20551;-70
2021/06/25 08:53:43;;;;;;;11.63;10.53;;;27.50;79.40;;;;;;5004799;28;20449;-70
2021/06/25 08:56:11;;;;;;;10.67;8.80;;;27.10;80.50;;;;;;5003170;28;20592;-68
2021/06/25 08:58:38;;;;;;;11.67;10.57;;;27.60;81.40;;;;;;5007252;28;20950;-69
2021/06/25 09:01:05;;;;;;;11.80;10.83;;;28.50;78.80;;;;;;5003941;28;20451;-70
2021/06/25 09:03:34;;;;;;;13.13;11.93;;;27.70;77.90;;;;;;4997213;28;20447;-69
2021/06/25 09:06:10;;;;;;;12.00;10.87;;;27.50;79.20;;;;;;5004750;28;20492;-70
2021/06/25 09:08:37;;;;;;;13.03;11.73;;;27.60;79.80;;;;;;5005879;28;20502;-70
2021/06/25 09:11:19;;;;;;;14.20;12.80;;;28.20;78.70;;;;;;5008232;28;20459;-69
2021/06/25 09:13:47;;;;;;;13.00;11.70;;;27.10;77.30;;;;;;5011552;28;20454;-67
2021/06/25 09:16:22;;;;;;;15.70;13.30;;;26.40;81.00;;;;;;5010003;28;20558;-69
2021/06/25 09:19:00;;;;;;;14.47;13.10;;;25.90;82.50;;;;;;5010630;28;20452;-69
2021/06/25 09:21:28;;;;;;;13.67;12.37;;;25.30;84.10;;;;;;5008228;28;20465;-70
2021/06/25 09:23:55;;;;;;;14.63;12.07;;;24.90;85.70;;;;;;5011006;28;20540;-69
2021/06/25 09:26:31;;;;;;;15.53;14.03;;;24.30;87.70;;;;;;5006302;28;20476;-69
2021/06/25 09:29:13;;;;;;;15.63;14.23;;;23.80;89.40;;;;;;5004804;28;20443;-70
2021/06/25 09:31:40;;;;;;;13.37;11.97;;;23.10;91.00;;;;;;5006166;28;20518;-69
2021/06/25 09:34:10;;;;;;;14.70;13.30;;;23.00;91.90;;;;;;4999772;28;20931;-69
2021/06/25 09:36:39;;;;;;;12.77;10.13;;;23.60;91.90;;;;;;5009573;28;20530;-69
2021/06/25 09:39:09;;;;;;;16.17;11.70;;;24.90;90.90;;;;;;5011179;28;21013;-69
2021/06/25 09:41:37;;;;;;;13.83;10.10;;;26.10;85.40;;;;;;5008117;28;20456;-71
2021/06/25 09:44:08;;;;;;;12.67;10.90;;;27.10;84.10;;;;;;5004260;28;20453;-70
2021/06/25 09:46:37;;;;;;;13.60;12.37;;;28.00;78.20;;;;;;5010602;28;20553;-70
2021/06/25 09:49:07;;;;;;;17.63;11.67;;;27.60;77.90;;;;;;5009063;28;20450;-70
2021/06/25 09:51:37;;;;;;;10.97;10.07;;;27.00;80.80;;;;;;5002102;28;20472;-70
2021/06/25 09:54:13;;;;;;;11.40;10.30;;;26.10;81.90;;;;;;5010227;28;20960;-69
2021/06/25 09:56:46;;;;;;;12.50;11.50;;;25.60;82.80;;;;;;5011301;28;20532;-68
2021/06/25 10:02:38;;;;;;;13.93;12.37;;;24.80;83.70;;;;;;5001383;28;20463;-69
2021/06/25 10:05:14;;;;;;;12.40;11.10;;;24.20;85.30;;;;;;4946193;29;20974;-69
2021/06/25 10:07:42;;;;;;;18.10;13.73;;;24.10;86.70;;;;;;4941017;29;20859;-69
2021/06/25 10:10:11;;;;;;;12.57;11.33;;;24.20;85.50;;;;;;4978377;28;20534;-69
2021/06/25 10:12:40;;;;;;;12.00;10.80;;;25.40;83.60;;;;;;5009425;28;20553;-69
2021/06/25 10:15:08;;;;;;;12.20;11.00;;;26.20;78.70;;;;;;5003583;28;20954;-69
2021/06/25 10:17:36;;;;;;;11.33;10.23;;;26.70;77.60;;;;;;5008069;28;20534;-69
2021/06/25 10:20:09;;;;;;;11.47;10.20;;;26.40;77.80;;;;;;5005590;28;20466;-70
2021/06/25 10:22:38;;;;;;;12.13;10.60;;;26.20;78.60;;;;;;5010631;28;20468;-69
2021/06/25 10:25:09;;;;;;;13.27;11.97;;;26.00;78.30;;;;;;5007203;28;20445;-70
2021/06/25 10:27:36;;;;;;;12.73;11.40;;;25.80;78.80;;;;;;5012398;28;20482;-70
2021/06/25 10:30:06;;;;;;;12.73;11.43;;;25.50;79.80;;;;;;5005825;28;20453;-70
2021/06/25 10:32:38;;;;;;;12.60;11.47;;;25.60;80.80;;;;;;5004272;28;20847;-70
2021/06/25 10:35:11;;;;;;;14.43;11.10;;;25.70;79.70;;;;;;5009180;28;20472;-69
2021/06/25 10:37:41;;;;;;;12.17;11.03;;;26.00;80.20;;;;;;5009444;28;20459;-69
2021/06/25 10:40:23;;;;;;;13.23;11.90;;;26.40;77.80;;;;;;5011966;28;20471;-69
2021/06/25 10:42:51;;;;;;;13.30;12.10;;;26.30;77.50;;;;;;5009752;28;20568;-70
2021/06/25 10:45:18;;;;;;;14.33;12.70;;;25.80;77.50;;;;;;5008395;28;20466;-69
2021/06/25 10:48:03;;;;;;;13.37;12.10;;;25.10;78.40;;;;;;5003943;28;20525;-69
2021/06/25 10:50:31;;;;;;;14.03;12.83;;;24.90;80.90;;;;;;5010038;28;20511;-70
2021/06/25 10:53:14;;;;;;;13.07;11.77;;;25.00;82.60;;;;;;5012438;28;20559;-69
2021/06/25 10:55:46;;;;;;;36.43;17.63;;;25.00;82.60;;;;;;5008232;28;20468;-69
2021/06/25 10:58:22;;;;;;;13.63;12.27;;;25.40;83.10;;;;;;5011223;28;20478;-69
2021/06/25 11:00:56;;;;;;;14.17;10.80;;;25.80;80.30;;;;;;5002063;28;20444;-70
2021/06/25 11:03:48;;;;;;;12.63;11.17;;;25.50;81.10;;;;;;5013304;28;20551;-70
2021/06/25 11:06:55;;;;;;;11.37;10.37;;;25.80;80.10;;;;;;5007073;28;20479;-70
2021/06/25 11:09:24;;;;;;;12.00;10.80;;;25.80;77.10;;;;;;5008436;28;20754;-70
2021/06/25 11:12:18;;;;;;;11.40;10.30;;;26.00;76.50;;;;;;5003490;28;20523;-70
2021/06/25 11:14:45;;;;;;;13.10;11.50;;;26.00;76.60;;;;;;5006516;28;20959;-70
2021/06/25 11:17:12;;;;;;;16.70;12.30;;;26.50;76.10;;;;;;5008698;28;20538;-69
2021/06/25 11:19:40;;;;;;;13.83;12.63;;;26.30;75.80;;;;;;5001427;28;20460;-70
2021/06/25 11:22:39;;;;;;;13.70;12.40;;;26.10;75.70;;;;;;5004226;28;20464;-70
2021/06/25 11:25:13;;;;;;;11.00;10.00;;;26.10;75.20;;;;;;4996615;28;20945;-70
2021/06/25 11:28:21;;;;;;;13.13;11.10;;;26.30;74.20;;;;;;5009127;28;20969;-70
2021/06/25 11:31:30;;;;;;;13.73;12.00;;;26.30;73.60;;;;;;5005783;28;20467;-69
2021/06/25 11:34:02;;;;;;;10.00;9.10;;;26.50;73.60;;;;;;5006664;28;20920;-69
2021/06/25 11:36:58;;;;;;;10.07;9.07;;;26.60;73.60;;;;;;5009463;28;20478;-69
2021/06/25 11:39:37;;;;;;;9.90;9.00;;;26.80;72.50;;;;;;4969990;28;20984;-70
2021/06/25 11:42:07;;;;;;;10.13;9.23;;;26.80;71.20;;;;;;5006323;28;20514;-68
2021/06/25 11:44:38;;;;;;;11.70;10.47;;;26.60;68.40;;;;;;5012528;28;20455;-70
2021/06/25 11:47:09;;;;;;;8.90;8.00;;;26.60;67.00;;;;;;5007894;28;20492;-69
2021/06/25 11:49:39;;;;;;;11.13;9.83;;;26.50;69.10;;;;;;5009611;28;20919;-69
2021/06/25 11:52:09;;;;;;;9.90;8.97;;;26.30;67.90;;;;;;5006432;28;20973;-69
2021/06/25 11:54:38;;;;;;;12.47;10.73;;;26.10;68.00;;;;;;5012476;28;20475;-70
2021/06/25 11:57:06;;;;;;;10.50;9.50;;;25.70;67.60;;;;;;5012051;28;20455;-68
2021/06/25 11:59:35;;;;;;;10.50;9.23;;;25.50;68.30;;;;;;5002656;28;20444;-69
2021/06/25 12:02:03;;;;;;;8.17;7.40;;;25.60;69.90;;;;;;5008043;28;20864;-70
2021/06/25 12:04:39;;;;;;;11.70;8.73;;;25.70;69.10;;;;;;5009245;28;20562;-69
2021/06/25 12:07:09;;;;;;;8.63;7.97;;;25.70;67.10;;;;;;5006207;28;20486;-69
2021/06/25 12:09:44;;;;;;;8.93;7.93;;;25.60;68.90;;;;;;5004839;28;20453;-69
2021/06/25 12:12:21;;;;;;;8.20;7.40;;;25.30;68.50;;;;;;5007335;28;20473;-70
2021/06/25 12:14:51;;;;;;;9.53;8.63;;;25.40;71.10;;;;;;5003105;28;20947;-69
2021/06/25 12:17:18;;;;;;;9.57;8.67;;;25.40;68.30;;;;;;5003540;28;20440;-69
2021/06/25 12:20:00;;;;;;;12.80;9.27;;;25.60;69.10;;;;;;5004173;28;20479;-69
2021/06/25 12:22:27;;;;;;;8.07;7.17;;;25.60;66.40;;;;;;5000278;28;20542;-69
2021/06/25 12:24:56;;;;;;;8.63;7.93;;;25.30;65.70;;;;;;5011116;28;20456;-68
2021/06/25 12:27:41;;;;;;;10.43;9.33;;;25.60;64.20;;;;;;4999747;28;20503;-69
2021/06/25 12:30:14;;;;;;;9.50;8.60;;;25.40;65.90;;;;;;5001476;28;20504;-68
2021/06/25 12:32:43;;;;;;;10.57;9.57;;;25.10;65.50;;;;;;5004586;28;20491;-69
2021/06/25 12:35:11;;;;;;;12.07;9.13;;;24.80;67.20;;;;;;4999424;28;20531;-68
2021/06/25 12:37:53;;;;;;;8.27;7.47;;;24.70;68.70;;;;;;5010985;28;20906;-69
2021/06/25 12:40:49;;;;;;;8.23;7.63;;;24.90;66.70;;;;;;5011126;28;20440;-69
2021/06/25 12:43:19;;;;;;;8.60;7.80;;;25.00;64.50;;;;;;5007509;28;20528;-69
2021/06/25 12:45:52;;;;;;;7.40;6.70;;;25.00;63.30;;;;;;5001490;28;20443;-69
2021/06/25 12:48:23;;;;;;;10.50;8.00;;;25.00;63.10;;;;;;5007627;28;20489;-69
2021/06/25 12:50:54;;;;;;;9.00;8.17;;;24.80;64.00;;;;;;5001086;28;20510;-70
2021/06/25 12:53:27;;;;;;;8.30;7.50;;;24.80;66.00;;;;;;5011709;28;20494;-68
2021/06/25 12:55:55;;;;;;;10.63;9.57;;;25.00;67.50;;;;;;5005931;28;20485;-71
2021/06/25 12:58:22;;;;;;;11.70;8.90;;;25.20;68.70;;;;;;5011178;28;20434;-70
2021/06/25 13:00:58;;;;;;;11.60;8.63;;;24.80;68.50;;;;;;5009500;28;20444;-69
2021/06/25 13:03:26;;;;;;;11.60;10.50;;;24.80;69.90;;;;;;5003737;28;20478;-70
2021/06/25 13:05:54;;;;;;;9.23;8.33;;;25.00;69.10;;;;;;4995062;28;20456;-69
2021/06/25 13:08:26;;;;;;;9.07;8.27;;;25.00;69.20;;;;;;5011111;28;20515;-69
2021/06/25 13:10:56;;;;;;;9.80;8.80;;;25.10;66.90;;;;;;5007477;28;20453;-69
2021/06/25 13:13:27;;;;;;;8.30;7.50;;;24.90;67.50;;;;;;5003723;28;20567;-68
2021/06/25 13:15:58;;;;;;;10.53;7.53;;;25.10;66.40;;;;;;5008412;28;20501;-69
2021/06/25 13:18:28;;;;;;;9.33;8.43;;;25.30;67.60;;;;;;4998316;28;20795;-69
2021/06/25 13:21:26;;;;;;;8.07;7.27;;;25.30;66.50;;;;;;5009148;28;20910;-70